createdAt,value
2023-03-27T00:02:15.522Z,15.10
2023-03-27T00:04:43.173Z,12.52
2023-03-27T00:07:10.795Z,21.17
2023-03-27T00:09:39.204Z,11.93
2023-03-27T00:12:07.233Z,15.95
2023-03-27T00:14:36.343Z,13.80
2023-03-27T00:17:05.154Z,16.95
2023-03-27T00:19:34.482Z,11.73
2023-03-27T00:22:02.109Z,21.10
2023-03-27T00:24:29.747Z,8.00
2023-03-27T00:26:58.204Z,19.42
2023-03-27T00:29:25.835Z,17.25
2023-03-27T00:31:53.483Z,16.67
2023-03-27T00:34:21.274Z,21.77
2023-03-27T00:36:51.272Z,12.23
2023-03-27T00:39:19.256Z,18.85
2023-03-27T00:41:47.494Z,18.02
2023-03-27T00:44:23.870Z,16.38
2023-03-27T00:46:51.780Z,16.52
2023-03-27T00:49:19.447Z,12.60
2023-03-27T00:51:48.496Z,20.63
2023-03-27T00:54:21.743Z,11.73
2023-03-27T00:56:49.960Z,11.98
2023-03-27T00:59:18.998Z,14.45
2023-03-27T01:01:47.460Z,13.38
2023-03-27T01:04:20.499Z,14.05
2023-03-27T01:06:50.257Z,14.75
2023-03-27T01:09:21.257Z,11.23
2023-03-27T01:11:55.869Z,12.20
2023-03-27T01:14:29.458Z,15.48
2023-03-27T01:17:08.073Z,10.05
2023-03-27T01:19:52.217Z,12.77
2023-03-27T01:22:39.831Z,15.30
2023-03-27T01:25:30.759Z,9.63
2023-03-27T01:28:11.724Z,18.77
2023-03-27T01:30:41.404Z,18.80
2023-03-27T01:33:26.609Z,19.98
2023-03-27T01:36:02.763Z,12.82
2023-03-27T01:38:44.434Z,16.83
2023-03-27T01:41:15.707Z,8.70
2023-03-27T01:43:49.201Z,12.25
2023-03-27T01:46:21.371Z,10.00
2023-03-27T01:48:51.599Z,14.55
2023-03-27T01:51:29.993Z,7.03
2023-03-27T01:54:01.053Z,14.83
2023-03-27T01:56:32.965Z,13.87
2023-03-27T01:59:04.150Z,14.23
2023-03-27T02:01:35.729Z,9.75
2023-03-27T02:04:04.751Z,9.98
2023-03-27T02:06:35.321Z,13.23
2023-03-27T02:09:07.012Z,18.00
2023-03-27T02:11:38.963Z,15.95
2023-03-27T02:14:08.941Z,11.13
2023-03-27T02:16:42.519Z,11.53
2023-03-27T02:19:13.165Z,11.15
2023-03-27T02:21:40.804Z,10.00
2023-03-27T02:24:09.086Z,19.65
2023-03-27T02:26:38.188Z,11.02
2023-03-27T02:29:23.713Z,14.35
2023-03-27T02:32:00.370Z,8.60
2023-03-27T02:35:00.194Z,17.65
2023-03-27T02:37:36.184Z,14.30
2023-03-27T02:40:13.789Z,13.93
2023-03-27T02:42:54.094Z,13.73
2023-03-27T02:45:26.441Z,14.80
2023-03-27T02:47:56.518Z,12.88
2023-03-27T02:50:27.717Z,10.95
2023-03-27T02:52:57.849Z,18.35
2023-03-27T02:55:28.534Z,13.95
2023-03-27T02:58:00.135Z,19.92
2023-03-27T03:00:29.624Z,13.13
2023-03-27T03:03:02.142Z,8.75
2023-03-27T03:05:30.296Z,10.95
2023-03-27T03:07:58.314Z,16.42
2023-03-27T03:10:26.396Z,8.90
2023-03-27T03:12:54.168Z,20.23
2023-03-27T03:15:23.589Z,12.43
2023-03-27T03:17:51.379Z,13.37
2023-03-27T03:20:19.038Z,13.13
2023-03-27T03:22:46.680Z,12.93
2023-03-27T03:25:14.660Z,15.43
2023-03-27T03:27:44.223Z,17.75
2023-03-27T03:30:16.974Z,14.57
2023-03-27T03:32:47.313Z,18.00
2023-03-27T03:35:15.283Z,9.70
2023-03-27T03:37:42.937Z,12.50
2023-03-27T03:40:11.851Z,13.05
2023-03-27T03:42:45.388Z,11.93
2023-03-27T03:45:13.384Z,16.02
2023-03-27T03:47:41.321Z,15.55
2023-03-27T03:50:11.888Z,14.90
2023-03-27T03:52:39.892Z,13.23
2023-03-27T03:55:09.125Z,14.93
2023-03-27T03:57:37.505Z,10.80
2023-03-27T04:00:08.922Z,12.77
2023-03-27T04:02:38.327Z,13.10
2023-03-27T04:05:08.560Z,19.33
2023-03-27T04:07:39.967Z,11.05
2023-03-27T04:10:09.329Z,11.30
2023-03-27T04:12:37.032Z,12.00
2023-03-27T04:15:05.286Z,13.05
2023-03-27T04:17:33.529Z,9.97
2023-03-27T04:20:02.253Z,10.20
2023-03-27T04:22:29.968Z,14.30
2023-03-27T04:24:59.095Z,15.63
2023-03-27T04:27:30.453Z,10.50
2023-03-27T04:29:58.178Z,6.97
2023-03-27T04:32:26.372Z,8.55
2023-03-27T04:34:55.414Z,20.05
2023-03-27T04:37:24.150Z,18.02
2023-03-27T04:39:52.589Z,10.82
2023-03-27T04:42:23.506Z,7.27
2023-03-27T04:44:53.099Z,11.10
2023-03-27T04:47:21.604Z,12.90
2023-03-27T04:49:51.159Z,7.10
2023-03-27T04:52:19.487Z,7.78
2023-03-27T04:54:48.347Z,15.88
2023-03-27T04:57:18.988Z,11.57
2023-03-27T04:59:48.639Z,6.38
2023-03-27T05:02:16.507Z,10.80
2023-03-27T05:04:44.224Z,12.45
2023-03-27T05:07:12.492Z,8.55
2023-03-27T05:09:40.185Z,8.25
2023-03-27T05:12:08.232Z,8.65
2023-03-27T05:14:36.784Z,14.27
2023-03-27T05:17:06.894Z,10.02
2023-03-27T05:19:35.167Z,17.83
2023-03-27T05:22:03.219Z,13.02
2023-03-27T05:24:31.194Z,11.43
2023-03-27T05:26:58.907Z,11.57
2023-03-27T05:29:26.921Z,12.00
2023-03-27T05:31:54.623Z,10.18
2023-03-27T05:34:23.930Z,9.27
2023-03-27T05:36:51.594Z,15.33
2023-03-27T05:39:19.869Z,6.22
2023-03-27T05:41:47.631Z,11.65
2023-03-27T05:44:15.341Z,6.63
2023-03-27T05:46:44.072Z,9.50
2023-03-27T05:49:11.860Z,9.63
2023-03-27T05:51:47.007Z,8.90
2023-03-27T05:54:15.008Z,14.70
2023-03-27T05:56:42.732Z,10.82
2023-03-27T05:59:10.465Z,6.13
2023-03-27T06:01:39.860Z,8.68
2023-03-27T06:04:09.343Z,8.07
2023-03-27T06:06:37.462Z,11.75
2023-03-27T06:09:07.803Z,9.33
2023-03-27T06:11:36.171Z,12.27
2023-03-27T06:14:04.162Z,9.88
2023-03-27T06:16:32.193Z,5.78
2023-03-27T06:19:00.124Z,10.65
2023-03-27T06:21:27.856Z,4.43
2023-03-27T06:23:56.315Z,10.25
2023-03-27T06:26:25.420Z,11.17
2023-03-27T06:28:53.499Z,6.17
2023-03-27T06:31:22.076Z,8.37
2023-03-27T06:33:50.228Z,12.13
2023-03-27T06:36:18.256Z,7.28
2023-03-27T06:38:46.151Z,10.13
2023-03-27T06:41:13.841Z,7.85
2023-03-27T06:43:42.977Z,7.15
2023-03-27T06:46:42.810Z,9.02
2023-03-27T06:49:13.324Z,10.75
2023-03-27T06:51:41.149Z,4.47
2023-03-27T06:54:08.833Z,7.68
2023-03-27T06:56:36.688Z,9.40
2023-03-27T06:59:07.265Z,13.75
2023-03-27T07:01:35.110Z,5.57
2023-03-27T07:04:02.957Z,6.85
2023-03-27T07:06:31.438Z,8.98
2023-03-27T07:08:59.301Z,11.07
2023-03-27T07:11:27.034Z,7.53
2023-03-27T07:13:54.783Z,10.68
2023-03-27T07:16:23.872Z,6.05
2023-03-27T07:18:51.680Z,7.72
2023-03-27T07:21:19.341Z,4.03
2023-03-27T07:23:47.432Z,6.82
2023-03-27T07:26:15.716Z,8.40
2023-03-27T07:28:45.249Z,8.60
2023-03-27T07:31:29.888Z,10.77
2023-03-27T07:34:03.133Z,7.72
2023-03-27T07:36:30.912Z,5.47
2023-03-27T07:38:59.082Z,6.57
2023-03-27T07:41:27.176Z,7.47
2023-03-27T07:43:55.007Z,11.50
2023-03-27T07:46:24.234Z,9.10
2023-03-27T07:48:52.361Z,5.35
2023-03-27T07:51:22.720Z,8.52
2023-03-27T07:53:55.128Z,9.50
2023-03-27T07:56:23.370Z,9.00
2023-03-27T07:58:51.530Z,9.15
2023-03-27T08:01:19.525Z,8.70
2023-03-27T08:03:48.620Z,8.95
2023-03-27T08:06:16.680Z,11.40
2023-03-27T08:08:46.275Z,6.07
2023-03-27T08:11:27.407Z,10.98
2023-03-27T08:13:58.462Z,7.15
2023-03-27T08:16:29.260Z,9.00
2023-03-27T08:18:57.621Z,8.48
2023-03-27T08:21:25.352Z,7.38
2023-03-27T08:23:57.345Z,10.82
2023-03-27T08:26:26.463Z,8.77
2023-03-27T08:28:56.167Z,6.57
2023-03-27T08:31:25.886Z,11.48
2023-03-27T08:33:53.687Z,2.80
2023-03-27T08:36:21.975Z,6.28
2023-03-27T08:38:50.000Z,8.48
2023-03-27T08:41:27.162Z,7.13
2023-03-27T08:43:57.725Z,5.53
2023-03-27T08:46:28.956Z,8.70
2023-03-27T08:48:59.458Z,3.03
2023-03-27T08:51:29.448Z,7.32
2023-03-27T08:57:28.298Z,7.83
2023-03-27T08:59:59.404Z,8.52
2023-03-27T09:02:31.082Z,9.85
2023-03-27T09:05:01.732Z,4.27
2023-03-27T09:07:34.785Z,6.65
2023-03-27T09:10:05.585Z,5.00
2023-03-27T09:12:43.910Z,3.85
2023-03-27T09:15:14.546Z,8.63
2023-03-27T09:17:45.829Z,10.13
2023-03-27T09:20:20.884Z,4.70
2023-03-27T09:22:52.842Z,4.47
2023-03-27T09:25:28.343Z,4.32
2023-03-27T09:27:58.889Z,7.60
2023-03-27T09:30:28.705Z,6.32
2023-03-27T09:32:58.252Z,8.15
2023-03-27T09:35:26.319Z,3.30
2023-03-27T09:37:58.856Z,4.25
2023-03-27T09:40:31.671Z,5.28
2023-03-27T09:43:06.206Z,4.38
2023-03-27T09:45:34.731Z,3.40
2023-03-27T09:48:04.096Z,5.07
2023-03-27T09:50:34.503Z,8.35
2023-03-27T09:53:10.463Z,6.70
2023-03-27T09:55:50.579Z,5.10
2023-03-27T09:58:29.921Z,7.82
2023-03-27T10:01:09.661Z,4.80
2023-03-27T10:03:43.122Z,5.57
2023-03-27T10:06:14.747Z,4.93
2023-03-27T10:08:47.307Z,6.57
2023-03-27T10:11:19.774Z,3.17
2023-03-27T10:13:50.881Z,5.85
2023-03-27T10:16:20.205Z,2.97
2023-03-27T10:18:49.424Z,5.22
2023-03-27T10:21:21.194Z,7.22
2023-03-27T10:23:50.556Z,11.23
2023-03-27T10:26:20.189Z,2.95
2023-03-27T10:28:51.560Z,9.52
2023-03-27T10:31:29.603Z,3.63
2023-03-27T10:33:58.315Z,1.83
2023-03-27T10:36:26.742Z,10.82
2023-03-27T10:38:57.837Z,6.78
2023-03-27T10:41:28.483Z,4.50
2023-03-27T10:43:58.865Z,4.70
2023-03-27T10:46:28.440Z,4.37
2023-03-27T10:49:03.853Z,5.25
2023-03-27T10:51:46.127Z,4.68
2023-03-27T10:54:20.468Z,5.13
2023-03-27T10:56:54.928Z,8.27
2023-03-27T10:59:40.639Z,3.45
2023-03-27T11:02:14.446Z,4.53
2023-03-27T11:04:47.604Z,6.03
2023-03-27T11:07:20.690Z,6.40
2023-03-27T11:09:57.225Z,8.35
2023-03-27T11:12:26.076Z,6.80
2023-03-27T11:15:01.056Z,6.72
2023-03-27T11:17:32.899Z,7.65
2023-03-27T11:20:07.337Z,6.80
2023-03-27T11:22:37.678Z,9.65
2023-03-27T11:25:12.219Z,5.80
2023-03-27T11:27:43.126Z,4.47
2023-03-27T11:30:32.560Z,5.78
2023-03-27T11:33:09.501Z,3.22
2023-03-27T11:35:39.584Z,2.47
2023-03-27T11:38:21.765Z,5.05
2023-03-27T11:40:50.225Z,3.60
2023-03-27T11:43:19.604Z,3.22
2023-03-27T11:45:55.189Z,2.40
2023-03-27T11:48:45.035Z,2.22
2023-03-27T11:51:18.516Z,3.17
2023-03-27T11:54:00.656Z,3.20
2023-03-27T11:56:39.890Z,6.00
2023-03-27T11:59:18.327Z,3.35
2023-03-27T12:04:51.882Z,1.25
2023-03-27T12:07:35.989Z,5.70
2023-03-27T12:10:16.313Z,2.13
2023-03-27T12:13:28.766Z,3.63
2023-03-27T12:16:12.507Z,5.63
2023-03-27T12:19:02.117Z,8.63
2023-03-27T12:21:48.037Z,6.15
2023-03-27T12:24:53.428Z,8.35
2023-03-27T12:27:44.779Z,5.90
2023-03-27T12:30:22.989Z,2.72
2023-03-27T12:33:13.518Z,6.25
2023-03-27T12:35:43.526Z,5.00
2023-03-27T12:38:23.672Z,5.63
2023-03-27T12:41:02.831Z,33.80
2023-03-27T12:43:33.801Z,5.07
2023-03-27T12:46:15.702Z,3.70
2023-03-27T12:48:57.101Z,2.95
2023-03-27T12:51:39.600Z,5.78
2023-03-27T12:54:23.905Z,2.70
2023-03-27T12:56:52.862Z,3.87
2023-03-27T12:59:22.264Z,3.38
2023-03-27T13:02:17.046Z,5.93
2023-03-27T13:04:57.549Z,5.13
2023-03-27T13:07:28.693Z,0.80
2023-03-27T13:10:08.293Z,0.30
2023-03-27T13:12:50.728Z,0.57
2023-03-27T13:16:03.287Z,1.30
2023-03-27T13:18:41.459Z,0.57
2023-03-27T13:21:19.177Z,1.73
2023-03-27T13:24:03.968Z,1.35
2023-03-27T13:27:05.836Z,2.05
2023-03-27T13:29:35.875Z,1.77
2023-03-27T13:32:07.319Z,3.25
2023-03-27T13:34:40.171Z,1.52
2023-03-27T13:37:48.179Z,3.60
2023-03-27T13:40:20.540Z,2.92
2023-03-27T13:42:52.534Z,2.70
2023-03-27T13:45:23.415Z,2.83
2023-03-27T13:48:15.046Z,1.63
2023-03-27T13:51:06.452Z,5.70
2023-03-27T13:53:44.955Z,2.08
2023-03-27T13:56:27.729Z,2.60
2023-03-27T13:59:22.596Z,3.03
2023-03-27T14:01:57.409Z,2.97
2023-03-27T14:04:45.903Z,2.05
2023-03-27T14:07:53.530Z,1.00
2023-03-27T14:10:35.352Z,4.22
2023-03-27T14:13:18.247Z,4.27
2023-03-27T14:15:59.708Z,5.35
2023-03-27T14:18:48.195Z,2.08
2023-03-27T14:21:27.676Z,1.48
2023-03-27T14:24:08.616Z,2.45
2023-03-27T14:26:39.142Z,1.90
2023-03-27T14:29:07.026Z,0.70
2023-03-27T14:31:36.348Z,1.55
2023-03-27T14:34:06.445Z,1.50
2023-03-27T14:36:35.945Z,1.52
2023-03-27T14:39:08.408Z,5.50
2023-03-27T14:41:36.185Z,2.22
2023-03-27T14:44:05.857Z,2.20
2023-03-27T14:46:36.190Z,7.10
2023-03-27T14:49:04.159Z,3.50
2023-03-27T14:51:37.228Z,4.80
2023-03-27T14:54:07.983Z,1.75
2023-03-27T14:56:38.267Z,2.47
2023-03-27T14:59:08.859Z,1.27
2023-03-27T15:01:38.302Z,0.60
2023-03-27T15:04:07.880Z,2.25
2023-03-27T15:06:37.582Z,0.90
2023-03-27T15:09:06.568Z,3.00
2023-03-27T15:11:38.349Z,2.65
2023-03-27T15:14:06.734Z,3.22
2023-03-27T15:16:37.374Z,1.50
2023-03-27T15:19:12.368Z,1.27
2023-03-27T15:21:50.937Z,1.60
2023-03-27T15:24:21.861Z,2.53
2023-03-27T15:26:50.751Z,2.60
2023-03-27T15:29:24.454Z,3.55
2023-03-27T15:31:54.722Z,2.47
2023-03-27T15:34:25.041Z,2.08
2023-03-27T15:36:56.922Z,3.10
2023-03-27T15:39:26.560Z,1.73
2023-03-27T15:41:55.129Z,2.92
2023-03-27T15:44:25.354Z,2.95
2023-03-27T15:46:56.342Z,3.75
2023-03-27T15:49:30.470Z,7.18
2023-03-27T15:51:59.496Z,5.32
2023-03-27T15:54:30.040Z,2.58
2023-03-27T15:57:10.526Z,6.07
2023-03-27T15:59:52.998Z,5.25
2023-03-27T16:02:25.480Z,3.47
2023-03-27T16:04:55.241Z,9.18
2023-03-27T16:07:25.425Z,6.90
2023-03-27T16:09:54.857Z,4.32
2023-03-27T16:12:28.260Z,7.40
2023-03-27T16:14:58.156Z,6.78
2023-03-27T16:17:34.315Z,5.07
2023-03-27T16:20:07.465Z,4.43
2023-03-27T16:22:36.671Z,2.45
2023-03-27T16:25:05.946Z,3.25
2023-03-27T16:27:36.522Z,2.37
2023-03-27T16:30:04.896Z,2.33
2023-03-27T16:32:33.982Z,3.25
2023-03-27T16:35:08.629Z,1.98
2023-03-27T16:37:36.592Z,5.10
2023-03-27T16:40:05.672Z,4.95
2023-03-27T16:42:33.578Z,5.65
2023-03-27T16:45:01.889Z,3.03
2023-03-27T16:47:29.635Z,5.85
2023-03-27T16:50:10.942Z,1.83
2023-03-27T16:52:39.201Z,2.95
2023-03-27T16:55:08.106Z,4.95
2023-03-27T16:57:36.045Z,3.83
2023-03-27T17:00:05.410Z,4.28
2023-03-27T17:02:34.759Z,4.70
2023-03-27T17:05:04.340Z,5.60
2023-03-27T17:07:32.121Z,5.85
2023-03-27T17:10:00.069Z,4.00
2023-03-27T17:12:28.728Z,5.47
2023-03-27T17:14:56.822Z,3.35
2023-03-27T17:17:24.870Z,3.80
2023-03-27T17:19:52.758Z,5.10
2023-03-27T17:22:21.990Z,8.48
2023-03-27T17:24:56.940Z,6.25
2023-03-27T17:27:26.601Z,4.57
2023-03-27T17:29:55.549Z,9.75
2023-03-27T17:32:23.859Z,6.45
2023-03-27T17:34:52.376Z,6.22
2023-03-27T17:37:22.128Z,8.75
2023-03-27T17:39:50.167Z,5.25
2023-03-27T17:42:18.171Z,5.05
2023-03-27T17:44:46.330Z,6.33
2023-03-27T17:47:14.362Z,10.10
2023-03-27T17:49:43.240Z,8.37
2023-03-27T17:52:12.048Z,5.97
2023-03-27T17:54:41.553Z,4.00
2023-03-27T17:57:09.576Z,6.03
2023-03-27T17:59:38.481Z,3.40
2023-03-27T18:02:07.200Z,10.35
2023-03-27T18:04:35.338Z,8.95
2023-03-27T18:07:02.978Z,8.98
2023-03-27T18:09:31.289Z,7.10
2023-03-27T18:12:00.345Z,5.70
2023-03-27T18:14:28.020Z,7.78
2023-03-27T18:17:09.085Z,9.73
2023-03-27T18:19:37.116Z,6.72
2023-03-27T18:22:06.055Z,5.50
2023-03-27T18:24:33.697Z,4.28
2023-03-27T18:27:05.011Z,9.30
2023-03-27T18:29:33.854Z,8.05
2023-03-27T18:32:02.216Z,8.88
2023-03-27T18:34:29.968Z,9.20
2023-03-27T18:36:58.092Z,5.38
2023-03-27T18:39:25.748Z,6.90
2023-03-27T18:41:54.886Z,9.83
2023-03-27T18:44:23.958Z,12.90
2023-03-27T18:46:51.577Z,12.10
2023-03-27T18:49:25.061Z,15.27
2023-03-27T18:51:53.494Z,7.75
2023-03-27T18:54:21.366Z,11.85
2023-03-27T18:56:49.420Z,7.85
2023-03-27T18:59:17.178Z,9.38
2023-03-27T19:01:46.624Z,6.88
2023-03-27T19:04:16.600Z,6.07
2023-03-27T19:06:46.264Z,7.45
2023-03-27T19:09:14.124Z,9.60
2023-03-27T19:11:41.796Z,4.18
2023-03-27T19:14:09.850Z,6.07
2023-03-27T19:16:37.766Z,5.88
2023-03-27T19:19:07.007Z,3.47
2023-03-27T19:21:34.657Z,2.35
2023-03-27T19:24:02.779Z,4.28
2023-03-27T19:26:30.486Z,8.15
2023-03-27T19:28:58.148Z,7.45
2023-03-27T19:31:27.484Z,3.95
2023-03-27T19:33:55.427Z,3.50
2023-03-27T19:36:24.990Z,9.00
2023-03-27T19:38:52.831Z,6.75
2023-03-27T19:41:20.609Z,11.85
2023-03-27T19:43:48.267Z,8.33
2023-03-27T19:46:17.015Z,4.80
2023-03-27T19:49:06.975Z,7.20
2023-03-27T19:51:37.938Z,10.68
2023-03-27T19:54:05.821Z,8.68
2023-03-27T19:56:33.489Z,7.30
2023-03-27T19:59:01.223Z,6.50
2023-03-27T20:01:29.942Z,10.45
2023-03-27T20:03:58.157Z,7.13
2023-03-27T20:06:28.876Z,9.20
2023-03-27T20:09:00.369Z,10.82
2023-03-27T20:11:28.668Z,12.25
2023-03-27T20:13:57.218Z,12.32
2023-03-27T20:16:26.344Z,11.15
2023-03-27T20:19:03.230Z,14.25
2023-03-27T20:21:32.625Z,8.00
2023-03-27T20:24:01.927Z,11.10
2023-03-27T20:26:29.950Z,8.35
2023-03-27T20:28:57.906Z,11.63
2023-03-27T20:31:25.764Z,11.23
2023-03-27T20:33:53.591Z,9.05
2023-03-27T20:36:23.236Z,8.35
2023-03-27T20:38:52.685Z,9.82
2023-03-27T20:41:21.956Z,6.90
2023-03-27T20:43:50.981Z,7.38
2023-03-27T20:46:18.861Z,8.73
2023-03-27T20:48:54.312Z,10.25
2023-03-27T20:51:24.922Z,5.18
2023-03-27T20:53:56.214Z,13.90
2023-03-27T20:56:25.625Z,8.65
2023-03-27T20:58:53.344Z,13.45
2023-03-27T21:01:27.637Z,9.50
2023-03-27T21:03:58.623Z,10.88
2023-03-27T21:06:26.620Z,7.28
2023-03-27T21:08:54.462Z,7.47
2023-03-27T21:11:22.173Z,9.30
2023-03-27T21:13:51.688Z,10.90
2023-03-27T21:16:19.515Z,10.85
2023-03-27T21:18:47.242Z,10.07
2023-03-27T21:21:14.965Z,7.93
2023-03-27T21:23:42.722Z,8.82
2023-03-27T21:26:10.576Z,9.07
2023-03-27T21:28:38.399Z,11.10
2023-03-27T21:31:08.894Z,11.80
2023-03-27T21:33:36.897Z,11.35
2023-03-27T21:36:05.023Z,9.48
2023-03-27T21:38:32.813Z,11.68
2023-03-27T21:41:02.341Z,7.95
2023-03-27T21:43:30.823Z,15.73
2023-03-27T21:46:01.799Z,5.85
2023-03-27T21:48:31.190Z,9.30
2023-03-27T21:51:02.210Z,8.70
2023-03-27T21:53:29.982Z,6.53
2023-03-27T21:55:58.368Z,6.43
2023-03-27T21:58:27.049Z,9.57
2023-03-27T22:01:08.681Z,15.38
2023-03-27T22:03:37.996Z,16.70
2023-03-27T22:06:12.175Z,9.70
2023-03-27T22:08:40.849Z,18.65
2023-03-27T22:11:08.566Z,7.78
2023-03-27T22:13:37.065Z,8.15
2023-03-27T22:16:08.992Z,7.50
2023-03-27T22:18:38.466Z,6.53
2023-03-27T22:21:14.606Z,9.48
2023-03-27T22:23:42.315Z,8.13
2023-03-27T22:26:10.229Z,11.02
2023-03-27T22:28:38.072Z,9.75
2023-03-27T22:31:06.401Z,10.73
2023-03-27T22:33:34.372Z,11.95
2023-03-27T22:39:02.817Z,9.40
2023-03-27T22:41:30.825Z,10.98
2023-03-27T22:44:01.072Z,18.23
2023-03-27T22:46:29.340Z,5.07
2023-03-27T22:48:58.325Z,8.23
2023-03-27T22:51:29.709Z,8.20
2023-03-27T22:53:57.521Z,13.27
2023-03-27T22:56:25.524Z,5.27
2023-03-27T22:58:53.210Z,7.75
2023-03-27T23:01:20.978Z,16.95
2023-03-27T23:03:48.873Z,12.10
2023-03-27T23:06:18.264Z,9.07
2023-03-27T23:08:48.647Z,13.20
2023-03-27T23:11:16.835Z,13.60
2023-03-27T23:13:44.682Z,11.88
2023-03-27T23:16:13.126Z,12.33
2023-03-27T23:18:41.212Z,14.18
2023-03-27T23:21:11.210Z,8.18
2023-03-27T23:23:40.410Z,13.15
2023-03-27T23:26:10.071Z,10.27
2023-03-27T23:28:39.426Z,6.70
2023-03-27T23:31:09.051Z,11.75
2023-03-27T23:33:38.342Z,13.63
2023-03-27T23:36:08.462Z,13.25
2023-03-27T23:38:37.556Z,8.32
2023-03-27T23:41:09.361Z,12.77
2023-03-27T23:43:37.274Z,5.97
2023-03-27T23:46:08.614Z,10.87
2023-03-27T23:48:36.397Z,11.77
2023-03-27T23:51:04.405Z,7.65
2023-03-27T23:53:32.392Z,10.30
2023-03-27T23:56:01.104Z,14.30
2023-03-27T23:58:32.570Z,7.75
